PDA64B LIEO-UKBB
Flight info
| Callsign | PDA64B |
|---|---|
| Flight time | 2h 29m |
| Altitude | 18000 |
| Route | BATOX L5 VALMA L865 ANC/N0413F200 M986 IBENI/N0461F330 DCT NIVES DCT VEBAL DCT DODAR DCT LONLA/K0857F330 M986 IVF M991 NIROV T199 GAMLA N180 SULUM |
| Aircraft | T154/M-SDFGRWY/S |
Departure
| Time | 2026-04-29 07:44 |
|---|---|
| Airport | Olbia Costa Smeralda Airport (LIEO) |
Arrival
| Time | 2026-04-29 10:13 |
|---|---|
| Airport | Boryspil International Airport (UKBB) |
| Time | Latitude | Longitude | Altitude | Speed | Heading |
|---|---|---|---|---|---|
| 2026-04-29 07:33 | 40.89999 | 9.51440 | 49 ft | 0 kts | 90° |
| 2026-04-29 07:39 | 40.89999 | 9.51450 | 50 ft | 2 kts | 90° |
| 2026-04-29 07:39 | 40.89999 | 9.51456 | 50 ft | 1 kts | 79° |
| 2026-04-29 07:39 | 40.90013 | 9.51482 | 50 ft | 5 kts | 56° |
| 2026-04-29 07:39 | 40.89997 | 9.51515 | 50 ft | 6 kts | 171° |
| 2026-04-29 07:40 | 40.89939 | 9.51495 | 50 ft | 10 kts | 216° |
| 2026-04-29 07:40 | 40.89888 | 9.51410 | 50 ft | 12 kts | 235° |
| 2026-04-29 07:40 | 40.89838 | 9.51315 | 50 ft | 12 kts | 235° |
| 2026-04-29 07:40 | 40.89805 | 9.51251 | 50 ft | 13 kts | 236° |
| 2026-04-29 07:41 | 40.89733 | 9.51114 | 50 ft | 13 kts | 236° |
| 2026-04-29 07:41 | 40.89678 | 9.51009 | 50 ft | 14 kts | 236° |
| 2026-04-29 07:41 | 40.89620 | 9.50896 | 50 ft | 14 kts | 236° |
| 2026-04-29 07:41 | 40.89560 | 9.50781 | 50 ft | 15 kts | 235° |
| 2026-04-29 07:42 | 40.89497 | 9.50664 | 50 ft | 16 kts | 236° |
| 2026-04-29 07:42 | 40.89434 | 9.50541 | 50 ft | 16 kts | 235° |
| 2026-04-29 07:42 | 40.89350 | 9.50442 | 50 ft | 16 kts | 188° |
| 2026-04-29 07:42 | 40.89274 | 9.50539 | 50 ft | 18 kts | 101° |
| 2026-04-29 07:43 | 40.89323 | 9.50722 | 50 ft | 26 kts | 56° |
| 2026-04-29 07:43 | 40.89485 | 9.51035 | 50 ft | 67 kts | 56° |
| 2026-04-29 07:43 | 40.89867 | 9.51762 | 50 ft | 124 kts | 56° |
| 2026-04-29 07:43 | 40.90438 | 9.52854 | 154 ft | 157 kts | 57° |
| 2026-04-29 07:44 | 40.91047 | 9.54017 | 594 ft | 160 kts | 59° |
| 2026-04-29 07:44 | 40.91691 | 9.55397 | 662 ft | 188 kts | 62° |
| 2026-04-29 07:44 | 40.92321 | 9.56869 | 1311 ft | 180 kts | 63° |
| 2026-04-29 07:44 | 40.93009 | 9.58259 | 1740 ft | 187 kts | 57° |
| 2026-04-29 07:45 | 40.93766 | 9.59692 | 2074 ft | 196 kts | 63° |
| 2026-04-29 07:45 | 40.94503 | 9.61241 | 2418 ft | 204 kts | 61° |
| 2026-04-29 07:45 | 40.95334 | 9.62907 | 2589 ft | 232 kts | 60° |
| 2026-04-29 07:45 | 40.96247 | 9.64729 | 3099 ft | 244 kts | 59° |
| 2026-04-29 07:46 | 40.97183 | 9.66606 | 3834 ft | 245 kts | 59° |
| 2026-04-29 07:46 | 40.98117 | 9.68516 | 4431 ft | 252 kts | 60° |
| 2026-04-29 07:46 | 40.99050 | 9.70460 | 5128 ft | 254 kts | 59° |
| 2026-04-29 07:46 | 41.00016 | 9.72405 | 5767 ft | 258 kts | 55° |
| 2026-04-29 07:47 | 41.01104 | 9.74325 | 6393 ft | 262 kts | 53° |
| 2026-04-29 07:47 | 41.01817 | 9.75604 | 6802 ft | 264 kts | 55° |
| 2026-04-29 07:47 | 41.03225 | 9.78281 | 7638 ft | 269 kts | 56° |
| 2026-04-29 07:47 | 41.03926 | 9.79646 | 8065 ft | 271 kts | 57° |
| 2026-04-29 07:48 | 41.05334 | 9.82400 | 8878 ft | 275 kts | 57° |
| 2026-04-29 07:48 | 41.06414 | 9.84517 | 9488 ft | 279 kts | 57° |
| 2026-04-29 07:48 | 41.07504 | 9.86659 | 10108 ft | 282 kts | 57° |
| 2026-04-29 07:48 | 41.08595 | 9.88803 | 10749 ft | 284 kts | 57° |
| 2026-04-29 07:49 | 41.09699 | 9.90974 | 11330 ft | 288 kts | 57° |
| 2026-04-29 07:49 | 41.10851 | 9.93231 | 11715 ft | 300 kts | 56° |
| 2026-04-29 07:49 | 41.12046 | 9.95545 | 12048 ft | 313 kts | 56° |
| 2026-04-29 07:49 | 41.13288 | 9.97970 | 12488 ft | 322 kts | 56° |
| 2026-04-29 07:50 | 41.14557 | 10.00467 | 12915 ft | 331 kts | 56° |
| 2026-04-29 07:50 | 41.15408 | 10.02145 | 13186 ft | 338 kts | 56° |
| 2026-04-29 07:50 | 41.17181 | 10.05648 | 13715 ft | 350 kts | 56° |
| 2026-04-29 07:50 | 41.18069 | 10.07462 | 13985 ft | 355 kts | 59° |
| 2026-04-29 07:51 | 41.19278 | 10.10396 | 14399 ft | 363 kts | 63° |
| 2026-04-29 07:51 | 41.20823 | 10.14420 | 14886 ft | 374 kts | 63° |
| 2026-04-29 07:51 | 41.21592 | 10.16470 | 15109 ft | 380 kts | 66° |
| 2026-04-29 07:51 | 41.22891 | 10.20822 | 15838 ft | 382 kts | 70° |
| 2026-04-29 07:52 | 41.23522 | 10.23052 | 16176 ft | 384 kts | 69° |
| 2026-04-29 07:52 | 41.24490 | 10.26360 | 16672 ft | 387 kts | 69° |
| 2026-04-29 07:52 | 41.25468 | 10.29658 | 17143 ft | 390 kts | 69° |
| 2026-04-29 07:52 | 41.26801 | 10.34155 | 17789 ft | 394 kts | 69° |
| 2026-04-29 07:53 | 41.27799 | 10.37524 | 18312 ft | 395 kts | 68° |
| 2026-04-29 07:53 | 41.28805 | 10.40925 | 18757 ft | 399 kts | 68° |
| 2026-04-29 07:53 | 41.29485 | 10.43228 | 19071 ft | 401 kts | 68° |
| 2026-04-29 07:53 | 41.30839 | 10.47817 | 19729 ft | 403 kts | 68° |
| 2026-04-29 07:54 | 41.31856 | 10.51272 | 20235 ft | 404 kts | 68° |
| 2026-04-29 07:54 | 41.32886 | 10.54767 | 20639 ft | 409 kts | 68° |
| 2026-04-29 07:54 | 41.33915 | 10.58269 | 21103 ft | 411 kts | 68° |
| 2026-04-29 07:54 | 41.34960 | 10.61831 | 21592 ft | 412 kts | 68° |
| 2026-04-29 07:55 | 41.36003 | 10.65390 | 22049 ft | 414 kts | 69° |
| 2026-04-29 07:55 | 41.36692 | 10.67750 | 22247 ft | 418 kts | 69° |
| 2026-04-29 07:55 | 41.38093 | 10.72571 | 22861 ft | 421 kts | 69° |
| 2026-04-29 07:55 | 41.39150 | 10.76202 | 23270 ft | 423 kts | 69° |
| 2026-04-29 07:56 | 41.39864 | 10.78650 | 23523 ft | 426 kts | 69° |
| 2026-04-29 07:56 | 41.40934 | 10.82329 | 23991 ft | 427 kts | 69° |
| 2026-04-29 07:56 | 41.42356 | 10.87223 | 24577 ft | 430 kts | 69° |
| 2026-04-29 07:56 | 41.43408 | 10.90956 | 25024 ft | 432 kts | 69° |
| 2026-04-29 07:57 | 41.44448 | 10.94704 | 25411 ft | 435 kts | 69° |
| 2026-04-29 07:57 | 41.45151 | 10.97233 | 25710 ft | 436 kts | 69° |
| 2026-04-29 07:57 | 41.46561 | 11.02295 | 26225 ft | 440 kts | 69° |
| 2026-04-29 07:57 | 41.47637 | 11.06158 | 26688 ft | 441 kts | 69° |
| 2026-04-29 07:58 | 41.48714 | 11.10014 | 27101 ft | 444 kts | 69° |
| 2026-04-29 07:58 | 41.49800 | 11.13857 | 27464 ft | 447 kts | 68° |
| 2026-04-29 07:58 | 41.50895 | 11.17733 | 27841 ft | 449 kts | 68° |
| 2026-04-29 07:58 | 41.51992 | 11.21632 | 28240 ft | 452 kts | 68° |
| 2026-04-29 07:59 | 41.52721 | 11.24232 | 28472 ft | 454 kts | 68° |
| 2026-04-29 07:59 | 41.53836 | 11.28207 | 28867 ft | 456 kts | 68° |
| 2026-04-29 07:59 | 41.55313 | 11.33488 | 29392 ft | 459 kts | 68° |
| 2026-04-29 07:59 | 41.56431 | 11.37410 | 29781 ft | 460 kts | 64° |
| 2026-04-29 08:00 | 41.58108 | 11.41021 | 30077 ft | 460 kts | 46° |
| 2026-04-29 08:00 | 41.60516 | 11.43771 | 30501 ft | 456 kts | 28° |
| 2026-04-29 08:00 | 41.62416 | 11.45016 | 30720 ft | 456 kts | 18° |
| 2026-04-29 08:00 | 41.66463 | 11.46605 | 31262 ft | 456 kts | 14° |
| 2026-04-29 08:01 | 41.68510 | 11.47448 | 31461 ft | 459 kts | 16° |
| 2026-04-29 08:01 | 41.71534 | 11.48839 | 31787 ft | 462 kts | 18° |
| 2026-04-29 08:01 | 41.74552 | 11.50284 | 32130 ft | 464 kts | 18° |
| 2026-04-29 08:01 | 41.78616 | 11.52246 | 32556 ft | 467 kts | 18° |
| 2026-04-29 08:02 | 41.81639 | 11.53712 | 32872 ft | 469 kts | 18° |
| 2026-04-29 08:02 | 41.84731 | 11.55216 | 33170 ft | 472 kts | 18° |
| 2026-04-29 08:02 | 41.87818 | 11.56719 | 33445 ft | 474 kts | 18° |
| 2026-04-29 08:02 | 41.90913 | 11.58228 | 33592 ft | 477 kts | 18° |
| 2026-04-29 08:03 | 41.97163 | 11.61245 | 33541 ft | 473 kts | 17° |
| 2026-04-29 08:03 | 42.02315 | 11.63751 | 33515 ft | 474 kts | 18° |
| 2026-04-29 08:04 | 42.09511 | 11.67311 | 33487 ft | 474 kts | 18° |
| 2026-04-29 08:04 | 42.14672 | 11.69861 | 33436 ft | 476 kts | 18° |
| 2026-04-29 08:05 | 42.20906 | 11.72944 | 33469 ft | 476 kts | 20° |
| 2026-04-29 08:05 | 42.27651 | 11.77962 | 33498 ft | 480 kts | 28° |
| 2026-04-29 08:06 | 42.33430 | 11.82508 | 33506 ft | 480 kts | 28° |
| 2026-04-29 08:06 | 42.39158 | 11.86986 | 33509 ft | 480 kts | 28° |
| 2026-04-29 08:07 | 42.44954 | 11.91531 | 33512 ft | 480 kts | 28° |
| 2026-04-29 08:07 | 42.50705 | 11.96043 | 33517 ft | 480 kts | 28° |
| 2026-04-29 08:08 | 42.56476 | 12.00586 | 33520 ft | 480 kts | 28° |
| 2026-04-29 08:08 | 42.62123 | 12.05299 | 33482 ft | 482 kts | 38° |
| 2026-04-29 08:09 | 42.66766 | 12.11861 | 33562 ft | 486 kts | 45° |
| 2026-04-29 08:09 | 42.71424 | 12.18551 | 33545 ft | 486 kts | 44° |
| 2026-04-29 08:10 | 42.76029 | 12.25207 | 33535 ft | 487 kts | 44° |
| 2026-04-29 08:10 | 42.79874 | 12.30785 | 33534 ft | 485 kts | 45° |
| 2026-04-29 08:11 | 42.85183 | 12.38543 | 33522 ft | 480 kts | 44° |
| 2026-04-29 08:11 | 42.89761 | 12.45217 | 33537 ft | 481 kts | 44° |
| 2026-04-29 08:12 | 42.94303 | 12.51850 | 33541 ft | 481 kts | 44° |
| 2026-04-29 08:12 | 42.98880 | 12.58549 | 33551 ft | 482 kts | 44° |
| 2026-04-29 08:13 | 43.03434 | 12.65228 | 33556 ft | 482 kts | 45° |
| 2026-04-29 08:13 | 43.07230 | 12.70833 | 33522 ft | 484 kts | 45° |
| 2026-04-29 08:14 | 43.11808 | 12.77549 | 33488 ft | 486 kts | 44° |
| 2026-04-29 08:14 | 43.16427 | 12.84297 | 33513 ft | 485 kts | 44° |
| 2026-04-29 08:15 | 43.21751 | 12.92138 | 33530 ft | 485 kts | 45° |
| 2026-04-29 08:15 | 43.26329 | 12.98931 | 33528 ft | 484 kts | 44° |
| 2026-04-29 08:16 | 43.30117 | 13.04563 | 33533 ft | 484 kts | 44° |
| 2026-04-29 08:16 | 43.35465 | 13.12426 | 33533 ft | 485 kts | 44° |
| 2026-04-29 08:17 | 43.40048 | 13.19189 | 33523 ft | 484 kts | 44° |
| 2026-04-29 08:17 | 43.44598 | 13.25998 | 33527 ft | 485 kts | 44° |
| 2026-04-29 08:18 | 43.49173 | 13.32851 | 33524 ft | 485 kts | 44° |
| 2026-04-29 08:18 | 43.52940 | 13.38505 | 33529 ft | 485 kts | 44° |
| 2026-04-29 08:19 | 43.58273 | 13.46500 | 33533 ft | 484 kts | 41° |
| 2026-04-29 08:19 | 43.63487 | 13.52220 | 33539 ft | 480 kts | 32° |
| 2026-04-29 08:20 | 43.67925 | 13.56796 | 33533 ft | 480 kts | 33° |
| 2026-04-29 08:20 | 43.73244 | 13.62373 | 33532 ft | 480 kts | 33° |
| 2026-04-29 08:21 | 43.76774 | 13.66081 | 33427 ft | 482 kts | 34° |
| 2026-04-29 08:21 | 43.78551 | 13.67961 | 33134 ft | 484 kts | 34° |
| 2026-04-29 08:21 | 43.82079 | 13.71704 | 32707 ft | 476 kts | 34° |
| 2026-04-29 08:21 | 43.84662 | 13.74440 | 32777 ft | 469 kts | 33° |
| 2026-04-29 08:22 | 43.86406 | 13.76280 | 32889 ft | 477 kts | 33° |
| 2026-04-29 08:22 | 43.89049 | 13.79069 | 33008 ft | 478 kts | 33° |
| 2026-04-29 08:22 | 43.94313 | 13.84645 | 33060 ft | 478 kts | 33° |
| 2026-04-29 08:23 | 44.00447 | 13.91160 | 33042 ft | 477 kts | 34° |
| 2026-04-29 08:23 | 44.04354 | 13.96692 | 33032 ft | 483 kts | 46° |
| 2026-04-29 08:24 | 44.09460 | 14.04971 | 33035 ft | 485 kts | 45° |
| 2026-04-29 08:24 | 44.13157 | 14.10837 | 32993 ft | 486 kts | 45° |
| 2026-04-29 08:25 | 44.18328 | 14.19070 | 33019 ft | 485 kts | 45° |
| 2026-04-29 08:25 | 44.22747 | 14.26148 | 33027 ft | 485 kts | 45° |
| 2026-04-29 08:26 | 44.27163 | 14.33240 | 33033 ft | 485 kts | 45° |
| 2026-04-29 08:26 | 44.31549 | 14.40303 | 33036 ft | 485 kts | 45° |
| 2026-04-29 08:27 | 44.35957 | 14.47419 | 33037 ft | 486 kts | 44° |
| 2026-04-29 08:27 | 44.40382 | 14.54581 | 33042 ft | 487 kts | 44° |
| 2026-04-29 08:28 | 44.44759 | 14.61684 | 33043 ft | 486 kts | 44° |
| 2026-04-29 08:28 | 44.49172 | 14.68873 | 33008 ft | 487 kts | 45° |
| 2026-04-29 08:29 | 44.53554 | 14.76045 | 33029 ft | 487 kts | 45° |
| 2026-04-29 08:29 | 44.57952 | 14.83244 | 33042 ft | 487 kts | 45° |
| 2026-04-29 08:30 | 44.64545 | 14.94059 | 33059 ft | 488 kts | 45° |
| 2026-04-29 08:31 | 44.68186 | 15.00048 | 33055 ft | 487 kts | 45° |
| 2026-04-29 08:31 | 44.73305 | 15.08491 | 33059 ft | 487 kts | 45° |
| 2026-04-29 08:32 | 44.77683 | 15.15730 | 33064 ft | 487 kts | 45° |
| 2026-04-29 08:32 | 44.81331 | 15.21777 | 33070 ft | 487 kts | 45° |
| 2026-04-29 08:33 | 44.86433 | 15.30257 | 33081 ft | 487 kts | 44° |
| 2026-04-29 08:33 | 44.90765 | 15.37475 | 33082 ft | 487 kts | 44° |
| 2026-04-29 08:34 | 44.95129 | 15.44766 | 33087 ft | 487 kts | 44° |
| 2026-04-29 08:34 | 44.99480 | 15.52054 | 33098 ft | 487 kts | 44° |
| 2026-04-29 08:35 | 45.03824 | 15.59349 | 33107 ft | 487 kts | 44° |
| 2026-04-29 08:35 | 45.08174 | 15.66677 | 33096 ft | 487 kts | 45° |
| 2026-04-29 08:36 | 45.11789 | 15.72799 | 33053 ft | 488 kts | 45° |
| 2026-04-29 08:36 | 45.16857 | 15.81337 | 33097 ft | 489 kts | 45° |
| 2026-04-29 08:37 | 45.21224 | 15.88744 | 33112 ft | 488 kts | 45° |
| 2026-04-29 08:37 | 45.25509 | 15.96190 | 33132 ft | 490 kts | 46° |
| 2026-04-29 08:38 | 45.29005 | 16.02423 | 33133 ft | 489 kts | 46° |
| 2026-04-29 08:38 | 45.33965 | 16.11236 | 33130 ft | 490 kts | 46° |
| 2026-04-29 08:39 | 45.38202 | 16.18790 | 33135 ft | 490 kts | 45° |
| 2026-04-29 08:39 | 45.42434 | 16.26343 | 33134 ft | 489 kts | 46° |
| 2026-04-29 08:40 | 45.46629 | 16.33857 | 33142 ft | 487 kts | 45° |
| 2026-04-29 08:40 | 45.50850 | 16.41429 | 33145 ft | 489 kts | 45° |
| 2026-04-29 08:41 | 45.55059 | 16.49013 | 33147 ft | 488 kts | 45° |
| 2026-04-29 08:41 | 45.59248 | 16.56573 | 33156 ft | 488 kts | 45° |
| 2026-04-29 08:42 | 45.62742 | 16.62898 | 33158 ft | 488 kts | 45° |
| 2026-04-29 08:42 | 45.67623 | 16.71784 | 33128 ft | 489 kts | 46° |
| 2026-04-29 08:43 | 45.71100 | 16.78128 | 33141 ft | 489 kts | 46° |
| 2026-04-29 08:43 | 45.75963 | 16.87003 | 33158 ft | 489 kts | 46° |
| 2026-04-29 08:44 | 45.80141 | 16.94649 | 33167 ft | 488 kts | 45° |
| 2026-04-29 08:44 | 45.83623 | 17.01036 | 33162 ft | 488 kts | 46° |
| 2026-04-29 08:45 | 45.88467 | 17.09946 | 33169 ft | 487 kts | 45° |
| 2026-04-29 08:45 | 45.92629 | 17.17619 | 33175 ft | 488 kts | 45° |
| 2026-04-29 08:46 | 45.96785 | 17.25308 | 33178 ft | 487 kts | 45° |
| 2026-04-29 08:46 | 46.00965 | 17.32960 | 33185 ft | 484 kts | 44° |
| 2026-04-29 08:47 | 46.04530 | 17.39152 | 33183 ft | 486 kts | 43° |
| 2026-04-29 08:47 | 46.08792 | 17.46643 | 33187 ft | 486 kts | 43° |
| 2026-04-29 08:48 | 46.13804 | 17.55446 | 33154 ft | 486 kts | 43° |
| 2026-04-29 08:48 | 46.18058 | 17.62948 | 33172 ft | 487 kts | 43° |
| 2026-04-29 08:49 | 46.21595 | 17.69245 | 33139 ft | 489 kts | 44° |
| 2026-04-29 08:49 | 46.26579 | 17.78145 | 33162 ft | 489 kts | 44° |
| 2026-04-29 08:50 | 46.30833 | 17.85751 | 33180 ft | 490 kts | 44° |
| 2026-04-29 08:50 | 46.35095 | 17.93383 | 33185 ft | 489 kts | 44° |
| 2026-04-29 08:51 | 46.39370 | 18.01059 | 33189 ft | 487 kts | 44° |
| 2026-04-29 08:51 | 46.43593 | 18.08661 | 33186 ft | 488 kts | 44° |
| 2026-04-29 08:52 | 46.47846 | 18.16337 | 33187 ft | 488 kts | 44° |
| 2026-04-29 08:52 | 46.51376 | 18.22728 | 33187 ft | 487 kts | 43° |
| 2026-04-29 08:53 | 46.55582 | 18.30362 | 33186 ft | 486 kts | 43° |
| 2026-04-29 08:53 | 46.60500 | 18.39311 | 33183 ft | 486 kts | 43° |
| 2026-04-29 08:54 | 46.64711 | 18.46999 | 33173 ft | 486 kts | 43° |
| 2026-04-29 08:54 | 46.68886 | 18.54641 | 33171 ft | 486 kts | 43° |
| 2026-04-29 08:55 | 46.73085 | 18.62347 | 33168 ft | 486 kts | 43° |
| 2026-04-29 08:55 | 46.77272 | 18.70075 | 33131 ft | 487 kts | 44° |
| 2026-04-29 08:56 | 46.81444 | 18.77804 | 33148 ft | 487 kts | 44° |
| 2026-04-29 08:56 | 46.85647 | 18.85587 | 33154 ft | 488 kts | 44° |
| 2026-04-29 08:57 | 46.89127 | 18.92046 | 33158 ft | 486 kts | 44° |
| 2026-04-29 08:57 | 46.93290 | 18.99795 | 33149 ft | 485 kts | 44° |
| 2026-04-29 08:58 | 46.98141 | 19.08847 | 33151 ft | 486 kts | 43° |
| 2026-04-29 08:58 | 47.02294 | 19.16621 | 33151 ft | 484 kts | 44° |
| 2026-04-29 08:59 | 47.06432 | 19.24388 | 33150 ft | 485 kts | 44° |
| 2026-04-29 08:59 | 47.09886 | 19.30887 | 33156 ft | 487 kts | 44° |
| 2026-04-29 09:00 | 47.14024 | 19.38651 | 33127 ft | 485 kts | 44° |
| 2026-04-29 09:00 | 47.18853 | 19.47765 | 33146 ft | 487 kts | 44° |
| 2026-04-29 09:01 | 47.22863 | 19.55797 | 33148 ft | 493 kts | 50° |
| 2026-04-29 09:01 | 47.26418 | 19.64387 | 33151 ft | 492 kts | 50° |
| 2026-04-29 09:02 | 47.30010 | 19.72963 | 33114 ft | 494 kts | 51° |
| 2026-04-29 09:02 | 47.32998 | 19.80086 | 33132 ft | 494 kts | 51° |
| 2026-04-29 09:03 | 47.36607 | 19.88695 | 33153 ft | 494 kts | 51° |
| 2026-04-29 09:03 | 47.40804 | 19.98738 | 33156 ft | 495 kts | 51° |
| 2026-04-29 09:04 | 47.44399 | 20.07375 | 33147 ft | 494 kts | 51° |
| 2026-04-29 09:04 | 47.47378 | 20.14543 | 33155 ft | 494 kts | 51° |
| 2026-04-29 09:05 | 47.51547 | 20.24614 | 33151 ft | 494 kts | 51° |
| 2026-04-29 09:05 | 47.55110 | 20.33251 | 33145 ft | 494 kts | 51° |
| 2026-04-29 09:06 | 47.58088 | 20.40489 | 33147 ft | 494 kts | 51° |
| 2026-04-29 09:06 | 47.61665 | 20.49211 | 33145 ft | 494 kts | 51° |
| 2026-04-29 09:07 | 47.65208 | 20.57876 | 33138 ft | 493 kts | 51° |
| 2026-04-29 09:07 | 47.68722 | 20.66498 | 33119 ft | 493 kts | 52° |
| 2026-04-29 09:08 | 47.72268 | 20.75263 | 33107 ft | 495 kts | 51° |
| 2026-04-29 09:08 | 47.76378 | 20.85429 | 33125 ft | 496 kts | 52° |
| 2026-04-29 09:09 | 47.79928 | 20.94233 | 33128 ft | 494 kts | 51° |
| 2026-04-29 09:09 | 47.83441 | 21.02967 | 33131 ft | 497 kts | 52° |
| 2026-04-29 09:10 | 47.86950 | 21.11724 | 33126 ft | 495 kts | 52° |
| 2026-04-29 09:10 | 47.89883 | 21.19062 | 33130 ft | 496 kts | 51° |
| 2026-04-29 09:11 | 47.93983 | 21.29356 | 33125 ft | 496 kts | 52° |
| 2026-04-29 09:11 | 47.96897 | 21.36694 | 33119 ft | 496 kts | 52° |
| 2026-04-29 09:12 | 48.00408 | 21.45570 | 33116 ft | 495 kts | 51° |
| 2026-04-29 09:12 | 48.03883 | 21.54374 | 33122 ft | 496 kts | 51° |
| 2026-04-29 09:13 | 48.07370 | 21.63242 | 33115 ft | 497 kts | 52° |
| 2026-04-29 09:13 | 48.11436 | 21.73638 | 33054 ft | 499 kts | 52° |
| 2026-04-29 09:14 | 48.14948 | 21.82579 | 33071 ft | 499 kts | 52° |
| 2026-04-29 09:14 | 48.18426 | 21.91509 | 33072 ft | 499 kts | 53° |
| 2026-04-29 09:15 | 48.21893 | 22.00453 | 33075 ft | 497 kts | 52° |
| 2026-04-29 09:15 | 48.24772 | 22.07895 | 33069 ft | 498 kts | 52° |
| 2026-04-29 09:16 | 48.28787 | 22.18316 | 33041 ft | 499 kts | 53° |
| 2026-04-29 09:16 | 48.32230 | 22.27285 | 33046 ft | 498 kts | 53° |
| 2026-04-29 09:17 | 48.34806 | 22.35001 | 33026 ft | 506 kts | 64° |
| 2026-04-29 09:17 | 48.37069 | 22.45010 | 33060 ft | 506 kts | 64° |
| 2026-04-29 09:18 | 48.39377 | 22.54998 | 33059 ft | 508 kts | 64° |
| 2026-04-29 09:18 | 48.42063 | 22.66654 | 33040 ft | 507 kts | 65° |
| 2026-04-29 09:19 | 48.43977 | 22.75022 | 33023 ft | 509 kts | 65° |
| 2026-04-29 09:19 | 48.46261 | 22.85047 | 33026 ft | 510 kts | 65° |
| 2026-04-29 09:20 | 48.48855 | 22.96827 | 33026 ft | 512 kts | 66° |
| 2026-04-29 09:20 | 48.51086 | 23.06980 | 33003 ft | 509 kts | 66° |
| 2026-04-29 09:21 | 48.53294 | 23.17072 | 33046 ft | 510 kts | 66° |
| 2026-04-29 09:21 | 48.55688 | 23.27031 | 32984 ft | 505 kts | 63° |
| 2026-04-29 09:22 | 48.57769 | 23.35243 | 33008 ft | 506 kts | 63° |
| 2026-04-29 09:22 | 48.60647 | 23.46840 | 33019 ft | 506 kts | 63° |
| 2026-04-29 09:23 | 48.62673 | 23.55045 | 33005 ft | 503 kts | 63° |
| 2026-04-29 09:23 | 48.65507 | 23.66645 | 32958 ft | 505 kts | 65° |
| 2026-04-29 09:24 | 48.67396 | 23.74998 | 32937 ft | 508 kts | 65° |
| 2026-04-29 09:24 | 48.69670 | 23.85039 | 32983 ft | 506 kts | 66° |
| 2026-04-29 09:25 | 48.72331 | 23.96778 | 32991 ft | 507 kts | 66° |
| 2026-04-29 09:25 | 48.74234 | 24.05210 | 33004 ft | 506 kts | 66° |
| 2026-04-29 09:26 | 48.76869 | 24.16938 | 33012 ft | 507 kts | 66° |
| 2026-04-29 09:26 | 48.78735 | 24.25283 | 33032 ft | 505 kts | 66° |
| 2026-04-29 09:27 | 48.81346 | 24.37017 | 33042 ft | 505 kts | 66° |
| 2026-04-29 09:27 | 48.83213 | 24.45444 | 33051 ft | 505 kts | 66° |
| 2026-04-29 09:28 | 48.85805 | 24.57201 | 33044 ft | 507 kts | 66° |
| 2026-04-29 09:28 | 48.87997 | 24.67281 | 33038 ft | 506 kts | 70° |
| 2026-04-29 09:29 | 48.88697 | 24.76188 | 33061 ft | 515 kts | 85° |
| 2026-04-29 09:29 | 48.89288 | 24.94227 | 33062 ft | 516 kts | 84° |
| 2026-04-29 09:30 | 48.89650 | 25.05031 | 33061 ft | 514 kts | 84° |
| 2026-04-29 09:30 | 48.90002 | 25.15875 | 33047 ft | 515 kts | 84° |
| 2026-04-29 09:31 | 48.90344 | 25.26678 | 33057 ft | 514 kts | 84° |
| 2026-04-29 09:31 | 48.90675 | 25.37495 | 33054 ft | 516 kts | 84° |
| 2026-04-29 09:32 | 48.90943 | 25.46501 | 33050 ft | 514 kts | 84° |
| 2026-04-29 09:32 | 48.91259 | 25.57387 | 33054 ft | 515 kts | 84° |
| 2026-04-29 09:33 | 48.91622 | 25.68212 | 33035 ft | 515 kts | 84° |
| 2026-04-29 09:33 | 48.92024 | 25.78973 | 33026 ft | 515 kts | 84° |
| 2026-04-29 09:34 | 48.92409 | 25.89851 | 33035 ft | 514 kts | 84° |
| 2026-04-29 09:34 | 48.92779 | 26.00622 | 33045 ft | 513 kts | 84° |
| 2026-04-29 09:35 | 48.93141 | 26.11448 | 33056 ft | 514 kts | 84° |
| 2026-04-29 09:35 | 48.93550 | 26.24064 | 33042 ft | 514 kts | 84° |
| 2026-04-29 09:36 | 48.93832 | 26.33027 | 33041 ft | 511 kts | 84° |
| 2026-04-29 09:36 | 48.94163 | 26.43826 | 33046 ft | 514 kts | 84° |
| 2026-04-29 09:37 | 48.94535 | 26.56423 | 33048 ft | 514 kts | 84° |
| 2026-04-29 09:37 | 48.94845 | 26.67280 | 33033 ft | 514 kts | 85° |
| 2026-04-29 09:38 | 48.95067 | 26.76287 | 33010 ft | 514 kts | 86° |
| 2026-04-29 09:38 | 48.95336 | 26.88925 | 33034 ft | 513 kts | 85° |
| 2026-04-29 09:39 | 48.95562 | 26.99711 | 33041 ft | 512 kts | 86° |
| 2026-04-29 09:39 | 48.95779 | 27.10472 | 33048 ft | 513 kts | 85° |
| 2026-04-29 09:40 | 48.95952 | 27.19473 | 33052 ft | 512 kts | 86° |
| 2026-04-29 09:40 | 48.96183 | 27.32023 | 33038 ft | 513 kts | 86° |
| 2026-04-29 09:41 | 48.96370 | 27.42842 | 33037 ft | 512 kts | 86° |
| 2026-04-29 09:41 | 48.96518 | 27.51849 | 33040 ft | 512 kts | 86° |
| 2026-04-29 09:42 | 48.96686 | 27.62606 | 33040 ft | 511 kts | 86° |
| 2026-04-29 09:42 | 48.96845 | 27.73455 | 32991 ft | 513 kts | 87° |
| 2026-04-29 09:43 | 48.96991 | 27.84202 | 33175 ft | 511 kts | 87° |
| 2026-04-29 09:43 | 48.97023 | 27.89641 | 33314 ft | 516 kts | 88° |
| 2026-04-29 09:43 | 48.97005 | 27.96874 | 33297 ft | 513 kts | 88° |
| 2026-04-29 09:44 | 48.96989 | 28.05891 | 33244 ft | 511 kts | 88° |
| 2026-04-29 09:44 | 48.96972 | 28.16686 | 33217 ft | 512 kts | 88° |
| 2026-04-29 09:45 | 48.96944 | 28.27463 | 33209 ft | 512 kts | 88° |
| 2026-04-29 09:45 | 48.96907 | 28.38308 | 33223 ft | 513 kts | 88° |
| 2026-04-29 09:46 | 48.96860 | 28.49059 | 33219 ft | 513 kts | 89° |
| 2026-04-29 09:46 | 48.96802 | 28.59920 | 33226 ft | 512 kts | 89° |
| 2026-04-29 09:47 | 48.96735 | 28.70698 | 33191 ft | 513 kts | 90° |
| 2026-04-29 09:47 | 48.96658 | 28.81488 | 33180 ft | 513 kts | 89° |
| 2026-04-29 09:48 | 48.97012 | 28.86886 | 33173 ft | 510 kts | 74° |
| 2026-04-29 09:48 | 48.98003 | 28.92004 | 33226 ft | 507 kts | 69° |
| 2026-04-29 09:48 | 49.00102 | 29.02247 | 33231 ft | 508 kts | 71° |
| 2026-04-29 09:49 | 49.02141 | 29.12532 | 33229 ft | 508 kts | 71° |
| 2026-04-29 09:49 | 49.04499 | 29.24469 | 33240 ft | 508 kts | 71° |
| 2026-04-29 09:50 | 49.06189 | 29.33071 | 33243 ft | 507 kts | 71° |
| 2026-04-29 09:50 | 49.08520 | 29.45000 | 33250 ft | 507 kts | 71° |
| 2026-04-29 09:51 | 49.10195 | 29.53618 | 33242 ft | 507 kts | 71° |
| 2026-04-29 09:51 | 49.12204 | 29.63834 | 33234 ft | 507 kts | 71° |
| 2026-04-29 09:52 | 49.14193 | 29.74147 | 33181 ft | 509 kts | 72° |
| 2026-04-29 09:52 | 49.16176 | 29.84522 | 33180 ft | 509 kts | 72° |
| 2026-04-29 09:53 | 49.18147 | 29.94883 | 33187 ft | 509 kts | 72° |
| 2026-04-29 09:53 | 49.20435 | 30.06977 | 33195 ft | 508 kts | 72° |
| 2026-04-29 09:54 | 49.22053 | 30.15577 | 33195 ft | 508 kts | 72° |
| 2026-04-29 09:54 | 49.23984 | 30.25895 | 33203 ft | 509 kts | 72° |
| 2026-04-29 09:55 | 49.25923 | 30.36249 | 33207 ft | 507 kts | 69° |
| 2026-04-29 09:55 | 49.27433 | 30.41080 | 33162 ft | 500 kts | 51° |
| 2026-04-29 09:55 | 49.30606 | 30.45998 | 33158 ft | 487 kts | 29° |
| 2026-04-29 09:56 | 49.35478 | 30.50270 | 33218 ft | 487 kts | 25° |
| 2026-04-29 09:56 | 49.41278 | 30.55575 | 33216 ft | 486 kts | 27° |
| 2026-04-29 09:57 | 49.46989 | 30.60927 | 33177 ft | 476 kts | 27° |
| 2026-04-29 09:57 | 49.50769 | 30.64481 | 32637 ft | 477 kts | 26° |
| 2026-04-29 09:57 | 49.53580 | 30.67134 | 32326 ft | 474 kts | 27° |
| 2026-04-29 09:58 | 49.56487 | 30.69399 | 31895 ft | 465 kts | 13° |
| 2026-04-29 09:58 | 49.58535 | 30.70264 | 31638 ft | 460 kts | 7° |
| 2026-04-29 09:58 | 49.61625 | 30.71250 | 31231 ft | 459 kts | 7° |
| 2026-04-29 09:58 | 49.64742 | 30.72284 | 30749 ft | 455 kts | 7° |
| 2026-04-29 09:59 | 49.67792 | 30.73336 | 29980 ft | 447 kts | 7° |
| 2026-04-29 09:59 | 49.70774 | 30.74361 | 29063 ft | 441 kts | 7° |
| 2026-04-29 09:59 | 49.73736 | 30.75375 | 28163 ft | 434 kts | 7° |
| 2026-04-29 09:59 | 49.76620 | 30.76364 | 27271 ft | 427 kts | 7° |
| 2026-04-29 10:00 | 49.79473 | 30.77342 | 26360 ft | 420 kts | 7° |
| 2026-04-29 10:00 | 49.82291 | 30.78309 | 25340 ft | 413 kts | 7° |
| 2026-04-29 10:00 | 49.85950 | 30.79567 | 23918 ft | 403 kts | 7° |
| 2026-04-29 10:00 | 49.87751 | 30.80187 | 23186 ft | 397 kts | 7° |
| 2026-04-29 10:01 | 49.90380 | 30.81092 | 22109 ft | 389 kts | 7° |
| 2026-04-29 10:01 | 49.92930 | 30.82481 | 20892 ft | 392 kts | 27° |
| 2026-04-29 10:01 | 49.94971 | 30.85206 | 19765 ft | 394 kts | 50° |
| 2026-04-29 10:01 | 49.96417 | 30.90276 | 18237 ft | 392 kts | 81° |
| 2026-04-29 10:02 | 49.96476 | 30.93082 | 17435 ft | 389 kts | 97° |
| 2026-04-29 10:02 | 49.95265 | 30.98137 | 15901 ft | 377 kts | 128° |
| 2026-04-29 10:02 | 49.94089 | 31.00088 | 15132 ft | 369 kts | 144° |
| 2026-04-29 10:02 | 49.91086 | 31.02152 | 13521 ft | 354 kts | 176° |
| 2026-04-29 10:03 | 49.89503 | 31.02160 | 12739 ft | 345 kts | 192° |
| 2026-04-29 10:03 | 49.86702 | 31.00209 | 11154 ft | 328 kts | 225° |
| 2026-04-29 10:03 | 49.85773 | 30.98469 | 10566 ft | 315 kts | 243° |
| 2026-04-29 10:03 | 49.85168 | 30.95379 | 9921 ft | 292 kts | 271° |
| 2026-04-29 10:04 | 49.85601 | 30.92479 | 9694 ft | 270 kts | 302° |
| 2026-04-29 10:04 | 49.86873 | 30.90499 | 9662 ft | 252 kts | 333° |
| 2026-04-29 10:04 | 49.89068 | 30.89816 | 9360 ft | 243 kts | 356° |
| 2026-04-29 10:04 | 49.90189 | 30.89747 | 9047 ft | 249 kts | 356° |
| 2026-04-29 10:05 | 49.91970 | 30.89625 | 9058 ft | 256 kts | 356° |
| 2026-04-29 10:05 | 49.93721 | 30.89537 | 9344 ft | 253 kts | 357° |
| 2026-04-29 10:05 | 49.95461 | 30.89476 | 9351 ft | 242 kts | 357° |
| 2026-04-29 10:05 | 49.97138 | 30.89426 | 8739 ft | 246 kts | 357° |
| 2026-04-29 10:06 | 49.99421 | 30.89356 | 8179 ft | 241 kts | 357° |
| 2026-04-29 10:06 | 50.01073 | 30.89308 | 7737 ft | 240 kts | 357° |
| 2026-04-29 10:06 | 50.02190 | 30.89276 | 7286 ft | 240 kts | 357° |
| 2026-04-29 10:06 | 50.03839 | 30.89222 | 6619 ft | 239 kts | 357° |
| 2026-04-29 10:07 | 50.05480 | 30.89159 | 5997 ft | 236 kts | 357° |
| 2026-04-29 10:07 | 50.07108 | 30.89090 | 5351 ft | 234 kts | 357° |
| 2026-04-29 10:07 | 50.08747 | 30.89021 | 4859 ft | 239 kts | 357° |
| 2026-04-29 10:07 | 50.10934 | 30.88927 | 4436 ft | 237 kts | 358° |
| 2026-04-29 10:08 | 50.12032 | 30.88905 | 4218 ft | 235 kts | 359° |
| 2026-04-29 10:08 | 50.13642 | 30.88947 | 4007 ft | 227 kts | 1° |
| 2026-04-29 10:08 | 50.15670 | 30.89103 | 3891 ft | 209 kts | 2° |
| 2026-04-29 10:08 | 50.16586 | 30.89190 | 3873 ft | 191 kts | 2° |
| 2026-04-29 10:09 | 50.17880 | 30.89312 | 3476 ft | 187 kts | 1° |
| 2026-04-29 10:09 | 50.19172 | 30.89418 | 3010 ft | 185 kts | 1° |
| 2026-04-29 10:09 | 50.20435 | 30.89512 | 2760 ft | 176 kts | 1° |
| 2026-04-29 10:09 | 50.22004 | 30.89620 | 2555 ft | 163 kts | 0° |
| 2026-04-29 10:10 | 50.23119 | 30.89697 | 2325 ft | 160 kts | 0° |
| 2026-04-29 10:10 | 50.23871 | 30.89750 | 2152 ft | 160 kts | 1° |
| 2026-04-29 10:10 | 50.24950 | 30.89827 | 1910 ft | 151 kts | 1° |
| 2026-04-29 10:10 | 50.25951 | 30.89903 | 1724 ft | 135 kts | 1° |
| 2026-04-29 10:11 | 50.27178 | 30.89992 | 1492 ft | 134 kts | 0° |
| 2026-04-29 10:11 | 50.27799 | 30.90035 | 1384 ft | 136 kts | 0° |
| 2026-04-29 10:11 | 50.28749 | 30.90101 | 1189 ft | 136 kts | 1° |
| 2026-04-29 10:11 | 50.29986 | 30.90203 | 910 ft | 131 kts | 1° |
| 2026-04-29 10:12 | 50.30587 | 30.90246 | 802 ft | 133 kts | 0° |
| 2026-04-29 10:12 | 50.31540 | 30.90315 | 649 ft | 137 kts | 1° |
| 2026-04-29 10:12 | 50.32489 | 30.90389 | 459 ft | 136 kts | 1° |
| 2026-04-29 10:12 | 50.33366 | 30.90449 | 418 ft | 109 kts | 2° |
| 2026-04-29 10:13 | 50.33935 | 30.90490 | 412 ft | 51 kts | 2° |
| 2026-04-29 10:13 | 50.34364 | 30.90425 | 411 ft | 44 kts | 336° |
| 2026-04-29 10:13 | 50.34502 | 30.90312 | 410 ft | 8 kts | 305° |
| 2026-04-29 10:13 | 50.34505 | 30.90252 | 411 ft | 9 kts | 251° |
| 2026-04-29 10:14 | 50.34450 | 30.90202 | 411 ft | 10 kts | 183° |
| 2026-04-29 10:14 | 50.34378 | 30.90200 | 412 ft | 10 kts | 182° |
| 2026-04-29 10:14 | 50.34267 | 30.90193 | 413 ft | 14 kts | 182° |
| 2026-04-29 10:14 | 50.34195 | 30.90187 | 413 ft | 16 kts | 183° |
| 2026-04-29 10:15 | 50.34072 | 30.90177 | 414 ft | 19 kts | 183° |
| 2026-04-29 10:15 | 50.33924 | 30.90167 | 414 ft | 22 kts | 183° |
| 2026-04-29 10:15 | 50.33705 | 30.90150 | 416 ft | 23 kts | 182° |
| 2026-04-29 10:15 | 50.33558 | 30.90140 | 417 ft | 8 kts | 182° |
| 2026-04-29 10:16 | 50.33518 | 30.90127 | 417 ft | 9 kts | 212° |
| 2026-04-29 10:16 | 50.33496 | 30.90033 | 417 ft | 10 kts | 272° |
| 2026-04-29 10:16 | 50.33500 | 30.89907 | 417 ft | 12 kts | 272° |
| 2026-04-29 10:16 | 50.33504 | 30.89803 | 418 ft | 4 kts | 281° |
| 2026-04-29 10:17 | 50.33528 | 30.89791 | 418 ft | 5 kts | 4° |
| 2026-04-29 10:17 | 50.33562 | 30.89794 | 418 ft | 0 kts | 2° |
| 2026-04-29 10:17 | 50.33563 | 30.89794 | 418 ft | 0 kts | 2° |